Time,TemperatureF,DewpointF,PressureIn,WindDirection,WindDirectionDegrees,WindSpeedMPH,WindSpeedGustMPH,Humidity,HourlyPrecipIn,Conditions,Clouds,dailyrainin,SoftwareType,DateUTC
2013-02-28 00:02:00,48.2,41.0,30.38,WSW,248,2.2,3.8,76,0.00,,,0.00,pywws,2013-02-28 05:02:00,
2013-02-28 00:07:00,48.0,40.8,30.38,SW,225,0.7,2.2,76,0.00,,,0.00,pywws,2013-02-28 05:07:00,
2013-02-28 00:12:00,48.2,40.7,30.39,SW,225,1.6,2.2,75,0.00,,,0.00,pywws,2013-02-28 05:12:00,
2013-02-28 00:17:00,48.0,40.5,30.39,SW,225,0.0,1.6,75,0.00,,,0.00,pywws,2013-02-28 05:17:00,
2013-02-28 00:22:00,48.0,40.5,30.39,NW,315,2.2,3.8,75,0.00,,,0.00,pywws,2013-02-28 05:22:00,
2013-02-28 00:32:00,47.8,40.6,30.40,WSW,248,2.2,3.1,76,0.00,,,0.00,pywws,2013-02-28 05:32:00,
2013-02-28 00:37:00,48.0,40.5,30.40,West,270,3.1,4.5,75,0.00,,,0.00,pywws,2013-02-28 05:37:00,
2013-02-28 00:42:00,48.2,40.7,30.40,SW,225,0.7,2.2,75,0.00,,,0.00,pywws,2013-02-28 05:42:00,
2013-02-28 00:47:00,47.8,40.3,30.40,West,270,1.6,3.1,75,0.00,,,0.00,pywws,2013-02-28 05:47:00,
2013-02-28 00:52:00,48.2,40.7,30.40,SW,225,2.2,4.5,75,0.00,,,0.00,pywws,2013-02-28 05:52:00,
2013-02-28 01:02:00,47.8,40.3,30.41,West,270,1.6,3.1,75,0.00,,,0.00,pywws,2013-02-28 06:02:00,
2013-02-28 01:07:00,47.7,40.1,30.41,NW,315,3.1,5.4,75,0.00,,,0.00,pywws,2013-02-28 06:07:00,
2013-02-28 01:12:00,47.7,40.1,30.42,West,270,3.8,7.6,75,0.00,,,0.00,pywws,2013-02-28 06:12:00,
2013-02-28 01:17:00,47.7,39.8,30.42,SW,225,0.0,2.2,74,0.00,,,0.00,pywws,2013-02-28 06:17:00,
2013-02-28 01:22:00,47.5,40.0,30.42,SW,225,0.7,3.1,75,0.00,,,0.00,pywws,2013-02-28 06:22:00,
2013-02-28 01:32:00,47.5,40.0,30.42,South,180,2.2,5.4,75,0.00,,,0.00,pywws,2013-02-28 06:32:00,
2013-02-28 01:37:00,47.3,39.8,30.42,WSW,248,0.7,3.1,75,0.00,,,0.00,pywws,2013-02-28 06:37:00,
2013-02-28 01:42:00,47.3,39.8,30.43,South,180,0.7,4.5,75,0.00,,,0.00,pywws,2013-02-28 06:42:00,
2013-02-28 01:47:00,47.1,39.6,30.43,NNW,338,1.6,3.1,75,0.00,,,0.00,pywws,2013-02-28 06:47:00,
2013-02-28 01:52:00,46.9,39.4,30.43,South,180,1.6,3.8,75,0.00,,,0.00,pywws,2013-02-28 06:52:00,
2013-02-28 02:02:00,46.9,39.4,30.43,West,270,2.2,3.8,75,0.00,,,0.00,pywws,2013-02-28 07:02:00,
2013-02-28 02:07:00,46.9,39.4,30.43,West,270,3.1,5.4,75,0.00,,,0.00,pywws,2013-02-28 07:07:00,
2013-02-28 02:12:00,46.9,39.4,30.43,West,270,1.6,3.8,75,0.00,,,0.00,pywws,2013-02-28 07:12:00,
2013-02-28 02:17:00,46.8,39.3,30.44,West,270,1.6,3.8,75,0.00,,,0.00,pywws,2013-02-28 07:17:00,
2013-02-28 02:22:00,46.8,39.3,30.44,SW,225,3.8,8.3,75,0.00,,,0.00,pywws,2013-02-28 07:22:00,
2013-02-28 02:32:00,46.8,39.3,30.44,West,270,1.6,3.8,75,0.00,,,0.00,pywws,2013-02-28 07:32:00,
2013-02-28 02:37:00,46.6,39.1,30.45,SW,225,0.7,1.6,75,0.00,,,0.00,pywws,2013-02-28 07:37:00,
2013-02-28 02:42:00,46.6,39.1,30.45,SW,225,3.1,6.9,75,0.00,,,0.00,pywws,2013-02-28 07:42:00,
2013-02-28 02:47:00,46.6,39.1,30.45,WSW,248,1.6,3.8,75,0.00,,,0.00,pywws,2013-02-28 07:47:00,
2013-02-28 02:52:00,46.6,39.1,30.45,SSW,202,2.2,3.8,75,0.00,,,0.00,pywws,2013-02-28 07:52:00,
2013-02-28 03:02:00,46.4,38.9,30.45,SSW,202,1.6,5.4,75,0.00,,,0.00,pywws,2013-02-28 08:02:00,
2013-02-28 03:07:00,46.4,38.9,30.45,SW,225,1.6,2.2,75,0.00,,,0.00,pywws,2013-02-28 08:07:00,
2013-02-28 03:12:00,46.2,38.7,30.45,SW,225,1.6,3.1,75,0.00,,,0.00,pywws,2013-02-28 08:12:00,
2013-02-28 03:17:00,46.2,38.7,30.46,SW,225,2.2,3.8,75,0.00,,,0.00,pywws,2013-02-28 08:17:00,
2013-02-28 03:22:00,46.2,38.7,30.46,SW,225,1.6,3.8,75,0.00,,,0.00,pywws,2013-02-28 08:22:00,
2013-02-28 03:32:00,46.0,38.6,30.46,SE,135,0.7,2.2,75,0.00,,,0.00,pywws,2013-02-28 08:32:00,
2013-02-28 03:37:00,45.9,38.7,30.47,NW,315,2.2,3.8,76,0.00,,,0.00,pywws,2013-02-28 08:37:00,
2013-02-28 03:42:00,45.9,38.7,30.47,NW,315,3.1,4.5,76,0.00,,,0.00,pywws,2013-02-28 08:42:00,
2013-02-28 03:47:00,45.9,38.4,30.47,WSW,248,4.5,7.6,75,0.00,,,0.00,pywws,2013-02-28 08:47:00,
2013-02-28 03:52:00,46.0,38.6,30.47,SW,225,3.1,4.5,75,0.00,,,0.00,pywws,2013-02-28 08:52:00,
2013-02-28 04:02:00,45.9,38.0,30.47,West,270,2.2,5.4,74,0.00,,,0.00,pywws,2013-02-28 09:02:00,
2013-02-28 04:07:00,46.0,38.2,30.47,WSW,248,3.8,7.6,74,0.00,,,0.00,pywws,2013-02-28 09:07:00,
2013-02-28 04:12:00,45.9,38.0,30.47,NW,315,3.1,4.5,74,0.00,,,0.00,pywws,2013-02-28 09:12:00,
2013-02-28 04:17:00,45.9,38.0,30.45,West,270,1.6,3.1,74,0.00,,,0.00,pywws,2013-02-28 09:17:00,
2013-02-28 04:22:00,45.9,37.7,30.45,SW,225,0.7,3.1,73,0.00,,,0.00,pywws,2013-02-28 09:22:00,
2013-02-28 04:32:00,45.9,37.7,30.44,West,270,2.2,4.5,73,0.00,,,0.00,pywws,2013-02-28 09:32:00,
2013-02-28 04:37:00,45.5,37.7,30.42,West,270,1.6,3.8,74,0.00,,,0.00,pywws,2013-02-28 09:37:00,
2013-02-28 04:42:00,45.3,37.5,30.42,SW,225,3.8,6.9,74,0.00,,,0.00,pywws,2013-02-28 09:42:00,
2013-02-28 04:47:00,45.1,37.4,30.42,West,270,3.1,5.4,74,0.00,,,0.00,pywws,2013-02-28 09:47:00,
2013-02-28 04:52:00,44.6,36.8,30.42,West,270,1.6,3.8,74,0.00,,,0.00,pywws,2013-02-28 09:52:00,
2013-02-28 05:02:00,45.0,37.2,30.42,East,90,1.6,3.8,74,0.00,,,0.00,pywws,2013-02-28 10:02:00,
2013-02-28 05:07:00,45.0,37.2,30.43,West,270,3.1,6.0,74,0.00,,,0.00,pywws,2013-02-28 10:07:00,
2013-02-28 05:12:00,45.0,36.8,30.43,NW,315,3.1,6.0,73,0.00,,,0.00,pywws,2013-02-28 10:12:00,
2013-02-28 05:17:00,45.0,36.8,30.43,West,270,3.1,5.4,73,0.00,,,0.00,pywws,2013-02-28 10:17:00,
2013-02-28 05:22:00,45.0,36.5,30.43,WSW,248,4.5,7.6,72,0.00,,,0.00,pywws,2013-02-28 10:22:00,
2013-02-28 05:32:00,44.4,36.0,30.44,SW,225,3.1,5.4,72,0.00,,,0.00,pywws,2013-02-28 10:32:00,
2013-02-28 05:37:00,44.8,36.3,30.44,West,270,3.1,6.9,72,0.00,,,0.00,pywws,2013-02-28 10:37:00,
2013-02-28 05:42:00,44.6,36.1,30.45,NW,315,1.6,3.8,72,0.00,,,0.00,pywws,2013-02-28 10:42:00,
2013-02-28 05:47:00,44.6,36.5,30.45,SW,225,2.2,3.8,73,0.00,,,0.00,pywws,2013-02-28 10:47:00,
2013-02-28 05:52:00,44.4,36.3,30.45,WNW,292,0.7,3.1,73,0.00,,,0.00,pywws,2013-02-28 10:52:00,
2013-02-28 06:02:00,44.1,36.3,30.44,West,270,2.2,3.1,74,0.00,,,0.00,pywws,2013-02-28 11:02:00,
2013-02-28 06:07:00,43.5,35.8,30.43,West,270,2.2,3.8,74,0.00,,,0.00,pywws,2013-02-28 11:07:00,
2013-02-28 06:12:00,43.5,36.1,30.42,SW,225,2.2,3.8,75,0.00,,,0.00,pywws,2013-02-28 11:12:00,
2013-02-28 06:17:00,43.3,36.0,30.41,NW,315,2.2,4.5,75,0.00,,,0.00,pywws,2013-02-28 11:17:00,
2013-02-28 06:22:00,43.2,35.8,30.40,West,270,1.6,3.8,75,0.00,,,0.00,pywws,2013-02-28 11:22:00,
2013-02-28 06:32:00,43.0,35.6,30.40,WNW,292,1.6,3.1,75,0.00,,,0.00,pywws,2013-02-28 11:32:00,
2013-02-28 06:37:00,42.4,35.4,30.40,WNW,292,2.2,3.1,76,0.00,,,0.00,pywws,2013-02-28 11:37:00,
2013-02-28 06:42:00,42.3,35.6,30.41,NW,315,2.2,3.8,77,0.00,,,0.00,pywws,2013-02-28 11:42:00,
2013-02-28 06:47:00,41.7,34.7,30.41,WNW,292,2.2,3.8,76,0.00,,,0.00,pywws,2013-02-28 11:47:00,
2013-02-28 06:52:00,42.1,35.1,30.41,West,270,3.1,5.4,76,0.00,,,0.00,pywws,2013-02-28 11:52:00,
2013-02-28 07:02:00,42.3,34.9,30.42,NW,315,2.2,4.5,75,0.00,,,0.00,pywws,2013-02-28 12:02:00,
2013-02-28 07:07:00,42.3,34.6,30.42,West,270,3.8,6.0,74,0.00,,,0.00,pywws,2013-02-28 12:07:00,
2013-02-28 07:12:00,42.3,34.6,30.42,West,270,1.6,3.8,74,0.00,,,0.00,pywws,2013-02-28 12:12:00,
2013-02-28 07:17:00,42.1,34.4,30.42,West,270,0.7,2.2,74,0.00,,,0.00,pywws,2013-02-28 12:17:00,
2013-02-28 07:22:00,42.1,34.4,30.42,WNW,292,2.2,3.8,74,0.00,,,0.00,pywws,2013-02-28 12:22:00,
2013-02-28 07:32:00,42.1,34.1,30.41,West,270,3.8,6.9,73,0.00,,,0.00,pywws,2013-02-28 12:32:00,
2013-02-28 07:37:00,42.3,33.9,30.39,West,270,3.8,7.6,72,0.00,,,0.00,pywws,2013-02-28 12:37:00,
2013-02-28 07:42:00,42.4,33.7,30.38,West,270,4.5,6.9,71,0.00,,,0.00,pywws,2013-02-28 12:42:00,
2013-02-28 07:47:00,42.6,33.5,30.37,NW,315,3.8,6.0,70,0.00,,,0.00,pywws,2013-02-28 12:47:00,
2013-02-28 07:52:00,42.6,33.2,30.36,WSW,248,3.1,5.4,69,0.00,,,0.00,pywws,2013-02-28 12:52:00,
2013-02-28 08:02:00,43.0,33.2,30.35,NW,315,3.1,4.5,68,0.00,,,0.00,pywws,2013-02-28 13:02:00,
2013-02-28 08:07:00,43.3,33.1,30.33,SW,225,3.8,6.9,67,0.00,,,0.00,pywws,2013-02-28 13:07:00,
2013-02-28 08:12:00,43.5,32.9,30.32,West,270,5.4,8.3,66,0.00,,,0.00,pywws,2013-02-28 13:12:00,
2013-02-28 08:17:00,43.7,32.7,30.31,NW,315,4.5,7.6,65,0.00,,,0.00,pywws,2013-02-28 13:17:00,
2013-02-28 08:22:00,44.1,32.7,30.31,West,270,4.5,8.3,64,0.00,,,0.00,pywws,2013-02-28 13:22:00,
2013-02-28 08:32:00,44.2,32.8,30.30,SW,225,4.5,9.8,64,0.00,,,0.00,pywws,2013-02-28 13:32:00,
2013-02-28 08:37:00,44.6,32.4,30.29,West,270,4.5,6.9,62,0.00,,,0.00,pywws,2013-02-28 13:37:00,
2013-02-28 08:42:00,45.5,32.0,30.28,West,270,9.2,14.5,59,0.00,,,0.00,pywws,2013-02-28 13:42:00,
2013-02-28 08:47:00,46.2,32.3,30.27,SW,225,4.5,6.9,58,0.00,,,0.00,pywws,2013-02-28 13:47:00,
2013-02-28 08:52:00,45.9,31.9,30.27,NNW,338,3.8,9.2,58,0.00,,,0.00,pywws,2013-02-28 13:52:00,
2013-02-28 09:02:00,45.5,31.6,30.27,West,270,7.6,12.1,58,0.00,,,0.00,pywws,2013-02-28 14:02:00,
2013-02-28 09:07:00,46.9,30.7,30.28,SW,225,4.5,6.9,53,0.00,,,0.00,pywws,2013-02-28 14:07:00,
2013-02-28 09:12:00,47.7,31.4,30.29,West,270,4.5,9.8,53,0.00,,,0.00,pywws,2013-02-28 14:12:00,
2013-02-28 09:17:00,48.0,30.3,30.30,NW,315,7.6,9.8,50,0.00,,,0.00,pywws,2013-02-28 14:17:00,
2013-02-28 09:22:00,48.2,30.4,30.30,NW,315,4.5,9.2,50,0.00,,,0.00,pywws,2013-02-28 14:22:00,
2013-02-28 09:32:00,48.7,29.4,30.31,NW,315,6.0,9.8,47,0.00,,,0.00,pywws,2013-02-28 14:32:00,
2013-02-28 09:37:00,49.1,30.3,30.32,West,270,5.4,8.3,48,0.00,,,0.00,pywws,2013-02-28 14:37:00,
2013-02-28 09:42:00,49.1,29.7,30.32,West,270,4.5,8.3,47,0.00,,,0.00,pywws,2013-02-28 14:42:00,
2013-02-28 09:47:00,48.9,29.6,30.32,West,270,5.4,9.2,47,0.00,,,0.00,pywws,2013-02-28 14:47:00,
2013-02-28 09:52:00,48.9,29.6,30.33,NW,315,3.1,5.4,47,0.00,,,0.00,pywws,2013-02-28 14:52:00,
2013-02-28 10:02:00,49.1,30.3,30.33,SW,225,3.8,8.3,48,0.00,,,0.00,pywws,2013-02-28 15:02:00,
2013-02-28 10:07:00,48.7,29.9,30.34,NW,315,5.4,9.8,48,0.00,,,0.00,pywws,2013-02-28 15:07:00,
2013-02-28 10:12:00,48.9,30.6,30.34,NW,315,3.8,6.9,49,0.00,,,0.00,pywws,2013-02-28 15:12:00,
2013-02-28 10:17:00,49.8,30.9,30.32,NW,315,4.5,11.4,48,0.00,,,0.00,pywws,2013-02-28 15:17:00,
2013-02-28 10:22:00,50.2,30.7,30.31,WNW,292,6.0,9.8,47,0.00,,,0.00,pywws,2013-02-28 15:22:00,
2013-02-28 10:32:00,50.2,30.7,30.30,West,270,4.5,6.9,47,0.00,,,0.00,pywws,2013-02-28 15:32:00,
2013-02-28 10:37:00,51.1,31.0,30.28,West,270,5.4,9.8,46,0.00,,,0.00,pywws,2013-02-28 15:37:00,
2013-02-28 10:42:00,51.6,31.0,30.27,West,270,6.0,9.8,45,0.00,,,0.00,pywws,2013-02-28 15:42:00,
2013-02-28 10:47:00,51.4,30.3,30.26,West,270,7.6,11.4,44,0.00,,,0.00,pywws,2013-02-28 15:47:00,
2013-02-28 10:52:00,51.4,30.8,30.26,West,270,4.5,7.6,45,0.00,,,0.00,pywws,2013-02-28 15:52:00,
2013-02-28 11:02:00,51.8,30.6,30.27,SE,135,6.0,9.8,44,0.00,,,0.00,pywws,2013-02-28 16:02:00,
2013-02-28 11:07:00,52.0,29.6,30.28,NW,315,5.4,9.8,42,0.00,,,0.00,pywws,2013-02-28 16:07:00,
2013-02-28 11:12:00,52.0,30.2,30.28,NW,315,4.5,9.8,43,0.00,,,0.00,pywws,2013-02-28 16:12:00,
2013-02-28 11:17:00,52.3,29.9,30.28,West,270,6.9,9.8,42,0.00,,,0.00,pywws,2013-02-28 16:17:00,
2013-02-28 11:22:00,52.7,30.8,30.29,NW,315,4.5,9.8,43,0.00,,,0.00,pywws,2013-02-28 16:22:00,
2013-02-28 11:32:00,53.2,30.7,30.29,South,180,3.1,6.0,42,0.00,,,0.00,pywws,2013-02-28 16:32:00,
2013-02-28 11:37:00,52.3,31.1,30.30,NW,315,5.4,11.4,44,0.00,,,0.00,pywws,2013-02-28 16:37:00,
2013-02-28 11:42:00,52.7,30.3,30.30,WNW,292,6.0,10.7,42,0.00,,,0.00,pywws,2013-02-28 16:42:00,
2013-02-28 11:47:00,52.2,30.9,30.30,West,270,3.8,8.3,44,0.00,,,0.00,pywws,2013-02-28 16:47:00,
2013-02-28 11:52:00,52.0,30.8,30.31,West,270,4.5,6.0,44,0.00,,,0.00,pywws,2013-02-28 16:52:00,
2013-02-28 12:02:00,52.3,31.1,30.31,NW,315,4.5,7.6,44,0.00,,,0.00,pywws,2013-02-28 17:02:00,
2013-02-28 12:07:00,52.0,30.8,30.31,NW,315,6.0,10.7,44,0.00,,,0.00,pywws,2013-02-28 17:07:00,
2013-02-28 12:12:00,51.8,30.6,30.31,NW,315,7.6,13.6,44,0.00,,,0.00,pywws,2013-02-28 17:12:00,
2013-02-28 12:17:00,52.3,30.5,30.31,NW,315,9.8,18.3,43,0.00,,,0.00,pywws,2013-02-28 17:17:00,
2013-02-28 12:22:00,51.6,30.4,30.31,West,270,6.9,13.0,44,0.00,,,0.00,pywws,2013-02-28 17:22:00,
2013-02-28 12:32:00,52.2,31.5,30.31,NE,45,9.2,13.6,45,0.00,,,0.00,pywws,2013-02-28 17:32:00,
2013-02-28 12:36:00,52.9,31.0,30.32,WSW,248,8.3,19.7,43,0.00,,,0.00,pywws,2013-02-28 17:36:00,
2013-02-28 12:41:00,52.7,31.4,30.32,SW,225,1.6,6.9,44,0.00,,,0.00,pywws,2013-02-28 17:41:00,
2013-02-28 12:46:00,52.2,30.9,30.32,West,270,7.6,12.1,44,0.00,,,0.00,pywws,2013-02-28 17:46:00,
2013-02-28 12:51:00,52.0,31.3,30.32,SW,225,6.9,12.1,45,0.00,,,0.00,pywws,2013-02-28 17:51:00,
2013-02-28 13:02:00,52.9,32.1,30.32,NW,315,5.4,9.8,45,0.00,,,0.00,pywws,2013-02-28 18:02:00,
2013-02-28 13:06:00,52.7,30.8,30.32,NW,315,7.6,12.1,43,0.00,,,0.00,pywws,2013-02-28 18:06:00,
2013-02-28 13:11:00,53.2,31.9,30.32,NW,315,3.8,11.4,44,0.00,,,0.00,pywws,2013-02-28 18:11:00,
2013-02-28 13:16:00,53.8,32.4,30.32,NW,315,4.5,9.8,44,0.00,,,0.00,pywws,2013-02-28 18:16:00,
2013-02-28 13:21:00,54.0,32.5,30.32,West,270,7.6,10.7,44,0.00,,,0.00,pywws,2013-02-28 18:21:00,
2013-02-28 13:32:00,53.6,32.8,30.32,West,270,5.4,8.3,45,0.00,,,0.00,pywws,2013-02-28 18:32:00,
2013-02-28 13:37:00,53.2,31.9,30.32,NW,315,6.0,11.4,44,0.00,,,0.00,pywws,2013-02-28 18:37:00,
2013-02-28 13:42:00,53.4,32.1,30.31,West,270,5.4,10.7,44,0.00,,,0.00,pywws,2013-02-28 18:42:00,
2013-02-28 13:47:00,54.0,32.5,30.29,West,270,8.3,15.2,44,0.00,,,0.00,pywws,2013-02-28 18:47:00,
2013-02-28 13:52:00,54.3,32.9,30.28,NW,315,4.5,11.4,44,0.00,,,0.00,pywws,2013-02-28 18:52:00,
2013-02-28 14:02:00,54.3,32.9,30.26,WNW,292,6.0,9.2,44,0.00,,,0.00,pywws,2013-02-28 19:02:00,
2013-02-28 14:06:00,54.5,33.0,30.26,NW,315,3.8,6.0,44,0.00,,,0.00,pywws,2013-02-28 19:06:00,
2013-02-28 14:11:00,54.0,32.5,30.26,West,270,4.5,6.9,44,0.00,,,0.00,pywws,2013-02-28 19:11:00,
2013-02-28 14:16:00,53.6,32.2,30.27,West,270,4.5,6.9,44,0.00,,,0.00,pywws,2013-02-28 19:16:00,
2013-02-28 14:21:00,52.9,32.1,30.27,NW,315,6.0,9.8,45,0.00,,,0.00,pywws,2013-02-28 19:21:00,
2013-02-28 14:32:00,53.6,32.8,30.27,WNW,292,3.8,5.4,45,0.00,,,0.00,pywws,2013-02-28 19:32:00,
2013-02-28 14:36:00,54.9,32.8,30.28,SW,225,6.0,11.4,43,0.00,,,0.00,pywws,2013-02-28 19:36:00,
2013-02-28 14:41:00,55.4,33.3,30.28,West,270,4.5,9.2,43,0.00,,,0.00,pywws,2013-02-28 19:41:00,
2013-02-28 14:46:00,54.9,32.2,30.28,NW,315,4.5,9.2,42,0.00,,,0.00,pywws,2013-02-28 19:46:00,
2013-02-28 14:51:00,54.5,32.5,30.28,West,270,6.0,9.8,43,0.00,,,0.00,pywws,2013-02-28 19:51:00,
2013-02-28 15:02:00,54.3,32.3,30.29,NW,315,6.0,9.2,43,0.00,,,0.00,pywws,2013-02-28 20:02:00,
2013-02-28 15:06:00,55.0,32.4,30.29,North,0,11.4,17.5,42,0.00,,,0.00,pywws,2013-02-28 20:06:00,
2013-02-28 15:11:00,55.2,31.9,30.29,West,270,9.8,15.2,41,0.00,,,0.00,pywws,2013-02-28 20:11:00,
2013-02-28 15:16:00,54.9,32.2,30.29,SW,225,6.0,9.8,42,0.00,,,0.00,pywws,2013-02-28 20:16:00,
2013-02-28 15:21:00,55.4,32.7,30.29,North,0,3.8,6.0,42,0.00,,,0.00,pywws,2013-02-28 20:21:00,
2013-02-28 15:32:00,55.6,32.3,30.29,South,180,3.1,6.9,41,0.00,,,0.00,pywws,2013-02-28 20:32:00,
2013-02-28 15:36:00,56.3,32.3,30.30,SW,225,8.3,14.5,40,0.00,,,0.00,pywws,2013-02-28 20:36:00,
2013-02-28 15:41:00,55.6,31.6,30.30,West,270,5.4,9.2,40,0.00,,,0.00,pywws,2013-02-28 20:41:00,
2013-02-28 15:46:00,55.0,31.2,30.30,NW,315,3.8,7.6,40,0.00,,,0.00,pywws,2013-02-28 20:46:00,
2013-02-28 15:51:00,55.2,31.9,30.30,West,270,4.5,8.3,41,0.00,,,0.00,pywws,2013-02-28 20:51:00,
2013-02-28 16:02:00,55.6,32.3,30.30,WNW,292,3.8,6.0,41,0.00,,,0.00,pywws,2013-02-28 21:02:00,
2013-02-28 16:07:00,55.6,31.0,30.30,West,270,7.6,13.0,39,0.00,,,0.00,pywws,2013-02-28 21:07:00,
2013-02-28 16:12:00,55.6,31.6,30.30,West,270,3.8,7.6,40,0.00,,,0.00,pywws,2013-02-28 21:12:00,
2013-02-28 16:17:00,54.7,31.4,30.30,West,270,5.4,9.2,41,0.00,,,0.00,pywws,2013-02-28 21:17:00,
2013-02-28 16:22:00,54.5,31.9,30.30,West,270,4.5,7.6,42,0.00,,,0.00,pywws,2013-02-28 21:22:00,
2013-02-28 16:32:00,54.5,32.5,30.30,SW,225,3.8,6.0,43,0.00,,,0.00,pywws,2013-02-28 21:32:00,
2013-02-28 16:36:00,54.7,32.0,30.30,NW,315,2.2,5.4,42,0.00,,,0.00,pywws,2013-02-28 21:36:00,
2013-02-28 16:41:00,54.7,31.4,30.30,West,270,3.1,6.0,41,0.00,,,0.00,pywws,2013-02-28 21:41:00,
2013-02-28 16:46:00,54.7,31.4,30.31,SW,225,3.1,5.4,41,0.00,,,0.00,pywws,2013-02-28 21:46:00,
2013-02-28 16:51:00,54.7,32.0,30.31,West,270,5.4,8.3,42,0.00,,,0.00,pywws,2013-02-28 21:51:00,
2013-02-28 17:02:00,55.0,31.8,30.31,West,270,6.9,13.0,41,0.00,,,0.00,pywws,2013-02-28 22:02:00,
2013-02-28 17:06:00,53.1,31.7,30.31,West,270,5.4,8.3,44,0.00,,,0.00,pywws,2013-02-28 22:06:00,
2013-02-28 17:11:00,53.2,31.9,30.31,West,270,6.0,10.7,44,0.00,,,0.00,pywws,2013-02-28 22:11:00,
2013-02-28 17:16:00,52.7,32.5,30.31,SW,225,2.2,4.5,46,0.00,,,0.00,pywws,2013-02-28 22:16:00,
2013-02-28 17:21:00,52.5,32.3,30.31,NW,315,3.8,6.9,46,0.00,,,0.00,pywws,2013-02-28 22:21:00,
2013-02-28 17:32:00,52.0,31.9,30.31,NW,315,6.0,9.8,46,0.00,,,0.00,pywws,2013-02-28 22:32:00,
2013-02-28 17:36:00,51.4,31.9,30.31,NW,315,3.1,6.9,47,0.00,,,0.00,pywws,2013-02-28 22:36:00,
2013-02-28 17:41:00,51.1,31.0,30.31,NW,315,3.8,6.0,46,0.00,,,0.00,pywws,2013-02-28 22:41:00,
2013-02-28 17:46:00,50.9,31.4,30.31,NW,315,4.5,6.0,47,0.00,,,0.00,pywws,2013-02-28 22:46:00,
2013-02-28 17:51:00,50.7,31.2,30.31,NW,315,2.2,5.4,47,0.00,,,0.00,pywws,2013-02-28 22:51:00,
2013-02-28 18:02:00,50.4,30.9,30.31,NW,315,3.1,5.4,47,0.00,,,0.00,pywws,2013-02-28 23:02:00,
2013-02-28 18:06:00,50.0,31.1,30.32,NW,315,3.8,5.4,48,0.00,,,0.00,pywws,2013-02-28 23:06:00,
2013-02-28 18:11:00,49.8,30.9,30.32,West,270,4.5,6.9,48,0.00,,,0.00,pywws,2013-02-28 23:11:00,
2013-02-28 18:16:00,49.6,31.3,30.32,NW,315,2.2,4.5,49,0.00,,,0.00,pywws,2013-02-28 23:16:00,
2013-02-28 18:21:00,49.5,31.6,30.32,WNW,292,2.2,3.8,50,0.00,,,0.00,pywws,2013-02-28 23:21:00,
2013-02-28 18:32:00,49.1,31.3,30.32,WNW,292,3.8,6.9,50,0.00,,,0.00,pywws,2013-02-28 23:32:00,
2013-02-28 18:36:00,48.7,31.4,30.32,NW,315,1.6,3.8,51,0.00,,,0.00,pywws,2013-02-28 23:36:00,
2013-02-28 18:41:00,48.4,31.6,30.32,NW,315,3.8,5.4,52,0.00,,,0.00,pywws,2013-02-28 23:41:00,
2013-02-28 18:46:00,48.4,31.6,30.32,West,270,4.5,6.9,52,0.00,,,0.00,pywws,2013-02-28 23:46:00,
2013-02-28 18:51:00,48.2,31.4,30.32,West,270,1.6,3.1,52,0.00,,,0.00,pywws,2013-02-28 23:51:00,
2013-02-28 19:02:00,48.0,31.2,30.33,North,0,0.7,2.2,52,0.00,,,0.00,pywws,2013-03-01 00:02:00,
2013-02-28 19:06:00,47.7,31.4,30.33,West,270,1.6,3.8,53,0.00,,,0.00,pywws,2013-03-01 00:06:00,
2013-02-28 19:11:00,47.5,31.2,30.33,NW,315,0.7,3.1,53,0.00,,,0.00,pywws,2013-03-01 00:11:00,
2013-02-28 19:16:00,47.1,31.3,30.33,WNW,292,3.8,6.9,54,0.00,,,0.00,pywws,2013-03-01 00:16:00,
2013-02-28 19:21:00,46.9,31.2,30.33,West,270,1.6,3.1,54,0.00,,,0.00,pywws,2013-03-01 00:21:00,
2013-02-28 19:32:00,46.8,31.0,30.34,NW,315,3.1,4.5,54,0.00,,,0.00,pywws,2013-03-01 00:32:00,
2013-02-28 19:36:00,46.4,30.7,30.34,North,0,3.8,7.6,54,0.00,,,0.00,pywws,2013-03-01 00:36:00,
2013-02-28 19:41:00,46.4,30.2,30.34,West,270,2.2,5.4,53,0.00,,,0.00,pywws,2013-03-01 00:41:00,
2013-02-28 19:46:00,46.2,29.6,30.34,West,270,4.5,6.9,52,0.00,,,0.00,pywws,2013-03-01 00:46:00,
2013-02-28 19:51:00,46.0,29.4,30.34,West,270,3.1,5.4,52,0.00,,,0.00,pywws,2013-03-01 00:51:00,
2013-02-28 20:02:00,45.9,29.2,30.34,West,270,3.1,4.5,52,0.00,,,0.00,pywws,2013-03-01 01:02:00,
2013-02-28 20:07:00,45.5,29.4,30.34,West,270,1.6,3.8,53,0.00,,,0.00,pywws,2013-03-01 01:07:00,
2013-02-28 20:12:00,45.3,29.2,30.34,NW,315,3.8,5.4,53,0.00,,,0.00,pywws,2013-03-01 01:12:00,
2013-02-28 20:17:00,45.0,28.9,30.34,NW,315,3.1,5.4,53,0.00,,,0.00,pywws,2013-03-01 01:17:00,
2013-02-28 20:22:00,45.0,28.9,30.34,NW,315,3.1,5.4,53,0.00,,,0.00,pywws,2013-03-01 01:22:00,
2013-02-28 20:32:00,44.2,28.2,30.35,NE,45,3.1,6.9,53,0.00,,,0.00,pywws,2013-03-01 01:32:00,
2013-02-28 20:37:00,44.6,29.0,30.35,West,270,3.8,7.6,54,0.00,,,0.00,pywws,2013-03-01 01:37:00,
2013-02-28 20:42:00,44.2,28.2,30.35,West,270,3.1,5.4,53,0.00,,,0.00,pywws,2013-03-01 01:42:00,
2013-02-28 20:47:00,44.1,28.0,30.36,North,0,3.1,5.4,53,0.00,,,0.00,pywws,2013-03-01 01:47:00,
2013-02-28 20:52:00,43.9,27.9,30.36,WNW,292,3.8,5.4,53,0.00,,,0.00,pywws,2013-03-01 01:52:00,
2013-02-28 21:02:00,43.7,27.7,30.36,SW,225,2.2,4.5,53,0.00,,,0.00,pywws,2013-03-01 02:02:00,
2013-02-28 21:07:00,43.7,27.7,30.36,SW,225,3.8,6.0,53,0.00,,,0.00,pywws,2013-03-01 02:07:00,
2013-02-28 21:12:00,43.2,27.7,30.36,WNW,292,3.1,5.4,54,0.00,,,0.00,pywws,2013-03-01 02:12:00,
2013-02-28 21:17:00,43.0,27.9,30.36,NW,315,3.8,9.2,55,0.00,,,0.00,pywws,2013-03-01 02:17:00,
2013-02-28 21:22:00,42.8,27.8,30.37,West,270,3.1,4.5,55,0.00,,,0.00,pywws,2013-03-01 02:22:00,
2013-02-28 21:32:00,42.8,27.8,30.37,West,270,1.6,4.5,55,0.00,,,0.00,pywws,2013-03-01 02:32:00,
2013-02-28 21:37:00,42.3,27.7,30.37,West,270,1.6,3.8,56,0.00,,,0.00,pywws,2013-03-01 02:37:00,
2013-02-28 21:42:00,42.1,28.0,30.37,NW,315,3.8,5.4,57,0.00,,,0.00,pywws,2013-03-01 02:42:00,
2013-02-28 21:47:00,41.9,27.8,30.37,NW,315,2.2,4.5,57,0.00,,,0.00,pywws,2013-03-01 02:47:00,
2013-02-28 21:52:00,41.7,28.0,30.37,WNW,292,2.2,3.8,58,0.00,,,0.00,pywws,2013-03-01 02:52:00,
2013-02-28 22:02:00,41.5,27.9,30.38,West,270,3.1,4.5,58,0.00,,,0.00,pywws,2013-03-01 03:02:00,
2013-02-28 22:07:00,41.4,27.7,30.38,NW,315,2.2,4.5,58,0.00,,,0.00,pywws,2013-03-01 03:07:00,
2013-02-28 22:12:00,41.0,27.8,30.38,West,270,2.2,5.4,59,0.00,,,0.00,pywws,2013-03-01 03:12:00,
2013-02-28 22:17:00,41.0,27.8,30.38,NW,315,3.1,7.6,59,0.00,,,0.00,pywws,2013-03-01 03:17:00,
2013-02-28 22:22:00,40.6,27.4,30.38,NW,315,2.2,3.8,59,0.00,,,0.00,pywws,2013-03-01 03:22:00,
2013-02-28 22:32:00,41.0,27.8,30.38,NW,315,2.2,3.8,59,0.00,,,0.00,pywws,2013-03-01 03:32:00,
2013-02-28 22:37:00,40.8,28.0,30.39,West,270,2.2,3.8,60,0.00,,,0.00,pywws,2013-03-01 03:37:00,
2013-02-28 22:42:00,40.8,27.6,30.39,West,270,3.8,6.0,59,0.00,,,0.00,pywws,2013-03-01 03:42:00,
2013-02-28 22:47:00,40.6,27.9,30.39,WNW,292,1.6,3.1,60,0.00,,,0.00,pywws,2013-03-01 03:47:00,
2013-02-28 22:52:00,40.5,27.7,30.39,West,270,2.2,3.8,60,0.00,,,0.00,pywws,2013-03-01 03:52:00,
2013-02-28 23:02:00,40.5,27.7,30.40,West,270,2.2,4.5,60,0.00,,,0.00,pywws,2013-03-01 04:02:00,
2013-02-28 23:07:00,40.3,27.5,30.40,West,270,3.1,4.5,60,0.00,,,0.00,pywws,2013-03-01 04:07:00,
2013-02-28 23:12:00,39.9,27.6,30.40,West,270,3.1,3.8,61,0.00,,,0.00,pywws,2013-03-01 04:12:00,
2013-02-28 23:17:00,39.9,27.6,30.40,WSW,248,3.1,5.4,61,0.00,,,0.00,pywws,2013-03-01 04:17:00,
2013-02-28 23:22:00,39.7,27.8,30.41,West,270,1.6,3.8,62,0.00,,,0.00,pywws,2013-03-01 04:22:00,
2013-02-28 23:32:00,39.7,27.8,30.41,NW,315,3.1,4.5,62,0.00,,,0.00,pywws,2013-03-01 04:32:00,
2013-02-28 23:37:00,39.6,27.6,30.42,SW,225,2.2,4.5,62,0.00,,,0.00,pywws,2013-03-01 04:37:00,
2013-02-28 23:42:00,39.4,27.5,30.42,NW,315,1.6,3.1,62,0.00,,,0.00,pywws,2013-03-01 04:42:00,
2013-02-28 23:47:00,39.4,27.5,30.42,NW,315,3.1,3.8,62,0.00,,,0.00,pywws,2013-03-01 04:47:00,
2013-02-28 23:52:00,39.4,27.5,30.43,West,270,3.1,5.4,62,0.00,,,0.00,pywws,2013-03-01 04:52:00,